createdAt,value
2018-03-02T00:01:05.027Z,-5.50
2018-03-02T00:02:05.013Z,-5.47
2018-03-02T00:03:57.896Z,-5.44
2018-03-02T00:04:57.916Z,-5.50
2018-03-02T00:06:50.818Z,-5.53
2018-03-02T00:07:50.806Z,-5.54
2018-03-02T00:09:43.703Z,-5.48
2018-03-02T00:10:43.712Z,-5.64
2018-03-02T00:12:36.632Z,-5.62
2018-03-02T00:13:36.614Z,-5.64
2018-03-02T00:15:29.536Z,-5.69
2018-03-02T00:16:29.524Z,-5.74
2018-03-02T00:18:22.410Z,-5.69
2018-03-02T00:19:22.418Z,-5.69
2018-03-02T00:21:15.342Z,-5.72
2018-03-02T00:22:15.320Z,-5.82
2018-03-02T00:24:08.219Z,-5.74
2018-03-02T00:25:08.223Z,-5.74
2018-03-02T00:27:01.147Z,-5.83
2018-03-02T00:28:01.136Z,-5.74
2018-03-02T00:29:54.208Z,-5.82
2018-03-02T00:30:54.209Z,-5.84
2018-03-02T00:32:47.106Z,-5.79
2018-03-02T00:33:47.094Z,-5.71
2018-03-02T00:35:39.970Z,-5.75
2018-03-02T00:36:39.976Z,-5.83
2018-03-02T00:38:32.870Z,-5.74
2018-03-02T00:39:32.853Z,-5.75
2018-03-02T00:41:25.748Z,-5.82
2018-03-02T00:42:25.736Z,-5.82
2018-03-02T00:44:18.612Z,-5.80
2018-03-02T00:45:18.617Z,-5.84
2018-03-02T00:47:11.528Z,-5.83
2018-03-02T00:48:11.515Z,-5.83
2018-03-02T00:50:04.410Z,-5.89
2018-03-02T00:51:04.406Z,-5.90
2018-03-02T00:52:57.328Z,-5.82
2018-03-02T00:53:57.305Z,-5.90
2018-03-02T00:55:50.202Z,-5.94
2018-03-02T00:56:50.209Z,-6.00
2018-03-02T00:58:43.108Z,-5.94
2018-03-02T00:59:43.091Z,-5.90
2018-03-02T01:01:35.991Z,-5.87
2018-03-02T01:02:35.996Z,-5.94
2018-03-02T01:04:28.853Z,-6.07
2018-03-02T01:05:28.880Z,-6.07
2018-03-02T01:07:21.760Z,-6.08
2018-03-02T01:08:21.755Z,-6.16
2018-03-02T01:10:14.625Z,-6.10
2018-03-02T01:11:14.626Z,-6.19
2018-03-02T01:13:07.521Z,-6.19
2018-03-02T01:14:07.507Z,-6.15
2018-03-02T01:16:00.387Z,-6.10
2018-03-02T01:17:00.391Z,-6.11
2018-03-02T01:18:53.290Z,-6.23
2018-03-02T01:19:53.274Z,-6.13
2018-03-02T01:21:46.150Z,-6.15
2018-03-02T01:22:46.154Z,-6.16
2018-03-02T01:24:39.057Z,-6.25
2018-03-02T01:25:39.038Z,-6.15
2018-03-02T01:27:31.961Z,-6.21
2018-03-02T01:28:31.916Z,-6.34
2018-03-02T01:30:24.804Z,-6.36
2018-03-02T01:31:24.796Z,-6.25
2018-03-02T01:33:17.720Z,-6.32
2018-03-02T01:34:17.727Z,-6.34
2018-03-02T01:36:10.553Z,-6.39
2018-03-02T01:37:10.562Z,-6.37
2018-03-02T01:39:03.454Z,-6.34
2018-03-02T01:40:03.441Z,-6.32
2018-03-02T01:41:56.318Z,-6.42
2018-03-02T01:42:56.322Z,-6.39
2018-03-02T01:44:49.220Z,-6.44
2018-03-02T01:45:49.204Z,-6.49
2018-03-02T01:47:42.099Z,-6.49
2018-03-02T01:48:42.087Z,-6.50
2018-03-02T01:50:34.963Z,-6.52
2018-03-02T01:51:34.967Z,-6.50
2018-03-02T01:53:27.861Z,-6.61
2018-03-02T01:54:27.845Z,-6.52
2018-03-02T01:56:20.720Z,-6.61
2018-03-02T01:57:20.725Z,-6.55
2018-03-02T01:59:13.623Z,-6.63
2018-03-02T02:00:13.607Z,-6.58
2018-03-02T02:02:06.482Z,-6.62
2018-03-02T02:03:06.486Z,-6.55
2018-03-02T02:04:59.438Z,-6.59
2018-03-02T02:05:59.366Z,-6.59
2018-03-02T02:07:52.270Z,-6.59
2018-03-02T02:08:52.247Z,-6.55
2018-03-02T02:10:45.138Z,-6.68
2018-03-02T02:11:45.131Z,-6.79
2018-03-02T02:13:38.039Z,-6.73
2018-03-02T02:14:38.025Z,-6.68
2018-03-02T02:16:30.921Z,-6.68
2018-03-02T02:17:30.925Z,-6.69
2018-03-02T02:19:23.846Z,-6.71
2018-03-02T02:20:23.832Z,-6.74
2018-03-02T02:22:16.715Z,-6.79
2018-03-02T02:23:16.724Z,-6.82
2018-03-02T02:25:09.639Z,-6.79
2018-03-02T02:26:09.623Z,-6.69
2018-03-02T02:28:02.519Z,-6.77
2018-03-02T02:29:02.516Z,-6.77
2018-03-02T02:30:55.413Z,-6.66
2018-03-02T02:31:55.400Z,-6.79
2018-03-02T02:33:48.294Z,-6.74
2018-03-02T02:34:48.288Z,-6.80
2018-03-02T02:36:41.159Z,-6.87
2018-03-02T02:37:41.189Z,-6.92
2018-03-02T02:39:34.061Z,-6.86
2018-03-02T02:40:34.047Z,-6.92
2018-03-02T02:42:26.929Z,-6.92
2018-03-02T02:43:26.928Z,-6.92
2018-03-02T02:45:19.833Z,-6.89
2018-03-02T02:46:19.811Z,-6.89
2018-03-02T02:48:12.690Z,-6.98
2018-03-02T02:49:12.687Z,-6.84
2018-03-02T02:51:05.583Z,-6.97
2018-03-02T02:52:05.567Z,-7.01
2018-03-02T02:53:58.447Z,-7.01
2018-03-02T02:54:58.460Z,-6.97
2018-03-02T02:56:51.374Z,-7.00
2018-03-02T02:57:51.354Z,-7.07
2018-03-02T02:59:44.271Z,-7.11
2018-03-02T03:00:44.254Z,-7.07
2018-03-02T03:02:37.150Z,-6.98
2018-03-02T03:03:37.157Z,-7.04
2018-03-02T03:05:30.076Z,-7.02
2018-03-02T03:06:30.051Z,-7.08
2018-03-02T03:08:22.926Z,-7.07
2018-03-02T03:09:22.932Z,-7.07
2018-03-02T03:11:15.827Z,-7.07
2018-03-02T03:12:15.828Z,-7.08
2018-03-02T03:14:08.684Z,-7.16
2018-03-02T03:15:08.709Z,-7.15
2018-03-02T03:17:01.584Z,-7.12
2018-03-02T03:18:01.582Z,-7.19
2018-03-02T03:19:54.464Z,-7.07
2018-03-02T03:20:54.451Z,-7.16
2018-03-02T03:22:47.332Z,-7.11
2018-03-02T03:23:47.334Z,-7.13
2018-03-02T03:25:40.227Z,-7.13
2018-03-02T03:26:40.212Z,-7.15
2018-03-02T03:28:33.086Z,-7.31
2018-03-02T03:29:33.089Z,-7.21
2018-03-02T03:31:25.996Z,-7.23
2018-03-02T03:32:25.970Z,-7.25
2018-03-02T03:34:18.858Z,-7.25
2018-03-02T03:35:18.856Z,-7.22
2018-03-02T03:37:11.769Z,-7.31
2018-03-02T03:38:11.731Z,-7.26
2018-03-02T03:40:04.643Z,-7.29
2018-03-02T03:41:04.610Z,-7.29
2018-03-02T03:42:57.484Z,-7.30
2018-03-02T03:43:57.487Z,-7.36
2018-03-02T03:45:50.380Z,-7.41
2018-03-02T03:46:50.364Z,-7.40
2018-03-02T03:48:43.244Z,-7.39
2018-03-02T03:49:43.246Z,-7.43
2018-03-02T03:51:36.156Z,-7.39
2018-03-02T03:52:36.126Z,-7.39
2018-03-02T03:54:29.003Z,-7.40
2018-03-02T03:55:29.008Z,-7.37
2018-03-02T03:57:21.903Z,-7.36
2018-03-02T03:58:21.888Z,-7.33
2018-03-02T04:00:14.757Z,-7.43
2018-03-02T04:01:14.762Z,-7.34
2018-03-02T04:03:07.665Z,-7.34
2018-03-02T04:04:07.649Z,-7.36
2018-03-02T04:06:00.542Z,-7.34
2018-03-02T04:07:00.527Z,-7.37
2018-03-02T04:08:53.402Z,-7.46
2018-03-02T04:09:53.403Z,-7.46
2018-03-02T04:11:46.302Z,-7.46
2018-03-02T04:12:46.289Z,-7.43
2018-03-02T04:14:39.160Z,-7.43
2018-03-02T04:15:39.166Z,-7.44
2018-03-02T04:17:32.061Z,-7.55
2018-03-02T04:18:32.047Z,-7.55
2018-03-02T04:20:24.951Z,-7.57
2018-03-02T04:21:24.956Z,-7.52
2018-03-02T04:23:17.885Z,-7.58
2018-03-02T04:24:17.839Z,-7.55
2018-03-02T04:26:10.748Z,-7.52
2018-03-02T04:27:10.727Z,-7.68
2018-03-02T04:29:03.628Z,-7.60
2018-03-02T04:30:03.636Z,-7.57
2018-03-02T04:31:56.525Z,-7.68
2018-03-02T04:32:56.525Z,-7.68
2018-03-02T04:34:49.384Z,-7.62
2018-03-02T04:35:49.387Z,-7.62
2018-03-02T04:37:42.286Z,-7.62
2018-03-02T04:38:42.271Z,-7.62
2018-03-02T04:40:35.147Z,-7.69
2018-03-02T04:41:35.152Z,-7.68
2018-03-02T04:43:28.044Z,-7.66
2018-03-02T04:44:28.038Z,-7.66
2018-03-02T04:46:20.903Z,-7.71
2018-03-02T04:47:20.909Z,-7.73
2018-03-02T04:49:13.805Z,-7.76
2018-03-02T04:50:13.790Z,-7.72
2018-03-02T04:52:06.691Z,-7.79
2018-03-02T04:53:06.670Z,-7.71
2018-03-02T04:54:59.543Z,-7.71
2018-03-02T04:55:59.551Z,-7.80
2018-03-02T04:57:52.447Z,-7.83
2018-03-02T04:58:52.430Z,-7.79
2018-03-02T05:00:45.307Z,-7.83
2018-03-02T05:01:45.310Z,-7.80
2018-03-02T05:03:38.211Z,-7.87
2018-03-02T05:04:38.190Z,-7.79
2018-03-02T05:06:31.064Z,-7.89
2018-03-02T05:07:31.068Z,-7.87
2018-03-02T05:09:23.960Z,-7.89
2018-03-02T05:10:23.943Z,-7.89
2018-03-02T05:12:16.828Z,-7.83
2018-03-02T05:13:16.832Z,-7.89
2018-03-02T05:15:09.752Z,-7.91
2018-03-02T05:16:09.708Z,-7.99
2018-03-02T05:18:02.776Z,-7.87
2018-03-02T05:19:02.760Z,-7.87
2018-03-02T05:20:55.636Z,-7.90
2018-03-02T05:21:55.639Z,-7.97
2018-03-02T05:23:48.544Z,-8.02
2018-03-02T05:24:48.533Z,-8.02
2018-03-02T05:26:41.400Z,-8.01
2018-03-02T05:27:41.405Z,-8.02
2018-03-02T05:29:34.297Z,-8.01
2018-03-02T05:30:34.283Z,-8.05
2018-03-02T05:32:27.158Z,-8.01
2018-03-02T05:33:27.162Z,-8.08
2018-03-02T05:35:20.058Z,-8.08
2018-03-02T05:36:20.041Z,-8.05
2018-03-02T05:38:12.935Z,-8.05
2018-03-02T05:39:12.919Z,-8.02
2018-03-02T05:41:05.791Z,-7.94
2018-03-02T05:42:05.795Z,-7.96
2018-03-02T05:43:58.691Z,-8.06
2018-03-02T05:44:58.677Z,-7.97
2018-03-02T05:46:51.567Z,-8.02
2018-03-02T05:47:51.566Z,-7.99
2018-03-02T05:49:44.471Z,-8.09
2018-03-02T05:50:44.443Z,-8.11
2018-03-02T05:52:37.315Z,-8.13
2018-03-02T05:53:37.321Z,-8.18
2018-03-02T05:55:30.213Z,-8.21
2018-03-02T05:56:30.199Z,-8.19
2018-03-02T05:58:23.088Z,-8.23
2018-03-02T05:59:23.074Z,-8.18
2018-03-02T06:01:15.964Z,-8.21
2018-03-02T06:02:15.948Z,-8.13
2018-03-02T06:04:08.844Z,-8.19
2018-03-02T06:05:08.826Z,-8.18
2018-03-02T06:07:01.726Z,-8.24
2018-03-02T06:08:01.709Z,-8.12
2018-03-02T06:09:54.608Z,-8.21
2018-03-02T06:10:54.594Z,-8.16
2018-03-02T06:12:47.475Z,-8.12
2018-03-02T06:13:47.473Z,-8.21
2018-03-02T06:15:40.376Z,-8.21
2018-03-02T06:16:40.358Z,-8.18
2018-03-02T06:18:33.234Z,-8.23
2018-03-02T06:19:33.234Z,-8.24
2018-03-02T06:21:26.135Z,-8.21
2018-03-02T06:22:26.123Z,-8.26
2018-03-02T06:24:19.016Z,-8.23
2018-03-02T06:25:18.999Z,-8.18
2018-03-02T06:27:11.873Z,-8.24
2018-03-02T06:28:11.879Z,-8.16
2018-03-02T06:30:04.781Z,-8.23
2018-03-02T06:31:04.780Z,-8.21
2018-03-02T06:32:57.632Z,-8.23
2018-03-02T06:33:57.637Z,-8.21
2018-03-02T06:35:50.532Z,-8.26
2018-03-02T06:36:50.519Z,-8.26
2018-03-02T06:38:43.393Z,-8.21
2018-03-02T06:39:43.397Z,-8.12
2018-03-02T06:41:36.293Z,-8.15
2018-03-02T06:42:36.277Z,-8.21
2018-03-02T06:44:29.153Z,-8.12
2018-03-02T06:45:29.156Z,-8.30
2018-03-02T06:47:22.050Z,-8.23
2018-03-02T06:48:22.037Z,-8.11
2018-03-02T06:50:14.937Z,-8.27
2018-03-02T06:51:14.922Z,-8.09
2018-03-02T06:53:07.810Z,-8.12
2018-03-02T06:54:07.806Z,-8.08
2018-03-02T06:56:00.708Z,-8.06
2018-03-02T06:57:00.682Z,-8.09
2018-03-02T06:58:53.570Z,-8.02
2018-03-02T06:59:53.577Z,-8.05
2018-03-02T07:01:46.473Z,-7.86
2018-03-02T07:02:46.458Z,-7.91
2018-03-02T07:04:39.331Z,-7.89
2018-03-02T07:05:39.336Z,-7.83
2018-03-02T07:07:32.259Z,-7.82
2018-03-02T07:08:32.227Z,-7.78
2018-03-02T07:10:25.123Z,-7.89
2018-03-02T07:11:25.107Z,-7.89
2018-03-02T07:13:18.009Z,-7.89
2018-03-02T07:14:17.991Z,-7.87
2018-03-02T07:16:10.884Z,-7.90
2018-03-02T07:17:10.876Z,-7.79
2018-03-02T07:19:03.748Z,-7.73
2018-03-02T07:20:03.751Z,-7.68
2018-03-02T07:21:56.650Z,-7.66
2018-03-02T07:22:56.682Z,-7.62
2018-03-02T07:24:49.526Z,-7.55
2018-03-02T07:25:49.526Z,-7.54
2018-03-02T07:27:42.417Z,-7.50
2018-03-02T07:28:42.401Z,-7.55
2018-03-02T07:30:35.278Z,-7.52
2018-03-02T07:31:35.282Z,-7.48
2018-03-02T07:33:28.181Z,-7.40
2018-03-02T07:34:28.174Z,-7.36
2018-03-02T07:36:21.067Z,-7.44
2018-03-02T07:37:21.055Z,-7.34
2018-03-02T07:39:13.987Z,-7.30
2018-03-02T07:40:13.964Z,-7.21
2018-03-02T07:42:06.886Z,-7.30
2018-03-02T07:43:06.845Z,-7.25
2018-03-02T07:44:59.723Z,-7.18
2018-03-02T07:45:59.727Z,-7.11
2018-03-02T07:47:52.623Z,-7.11
2018-03-02T07:48:52.607Z,-7.07
2018-03-02T07:50:45.528Z,-6.89
2018-03-02T07:51:45.513Z,-6.94
2018-03-02T07:53:38.410Z,-6.87
2018-03-02T07:54:38.397Z,-6.80
2018-03-02T07:56:31.293Z,-6.77
2018-03-02T07:57:31.315Z,-6.68
2018-03-02T07:59:24.170Z,-6.58
2018-03-02T08:00:24.173Z,-6.63
2018-03-02T08:02:17.075Z,-6.62
2018-03-02T08:03:17.059Z,-6.52
2018-03-02T08:05:09.936Z,-6.59
2018-03-02T08:06:09.942Z,-6.65
2018-03-02T08:08:02.837Z,-6.76
2018-03-02T08:09:02.822Z,-6.79
2018-03-02T08:10:55.702Z,-6.69
2018-03-02T08:11:55.707Z,-6.69
2018-03-02T08:13:48.606Z,-6.52
2018-03-02T08:14:48.591Z,-6.55
2018-03-02T08:16:41.468Z,-6.55
2018-03-02T08:17:41.476Z,-6.55
2018-03-02T08:19:34.372Z,-6.50
2018-03-02T08:20:34.358Z,-6.40
2018-03-02T08:22:27.255Z,-6.26
2018-03-02T08:23:27.242Z,-6.18
2018-03-02T08:25:20.121Z,-6.10
2018-03-02T08:26:20.125Z,-6.15
2018-03-02T08:28:13.028Z,-6.22
2018-03-02T08:29:13.020Z,-6.15
2018-03-02T08:31:05.888Z,-6.07
2018-03-02T08:32:05.896Z,-6.05
2018-03-02T08:33:58.797Z,-5.92
2018-03-02T08:34:58.784Z,-5.79
2018-03-02T08:36:51.662Z,-5.80
2018-03-02T08:37:51.668Z,-5.94
2018-03-02T08:39:44.567Z,-5.86
2018-03-02T08:40:44.554Z,-5.87
2018-03-02T08:42:37.453Z,-6.00
2018-03-02T08:43:37.440Z,-5.98
2018-03-02T08:45:30.509Z,-5.93
2018-03-02T08:46:30.488Z,-5.93
2018-03-02T08:48:23.392Z,-5.80
2018-03-02T08:49:23.395Z,-5.83
2018-03-02T08:51:16.265Z,-5.82
2018-03-02T08:52:16.267Z,-5.79
2018-03-02T08:54:09.166Z,-5.86
2018-03-02T08:55:09.150Z,-5.90
2018-03-02T08:57:02.030Z,-5.75
2018-03-02T08:58:02.041Z,-5.66
2018-03-02T08:59:54.939Z,-5.64
2018-03-02T09:00:54.923Z,-5.66
2018-03-02T09:02:47.803Z,-5.53
2018-03-02T09:03:47.810Z,-5.44
2018-03-02T09:05:40.711Z,-5.29
2018-03-02T09:06:40.705Z,-5.19
2018-03-02T09:08:33.593Z,-5.13
2018-03-02T09:09:33.590Z,-5.14
2018-03-02T09:11:26.461Z,-5.10
2018-03-02T09:12:26.466Z,-4.99
2018-03-02T09:14:19.368Z,-4.96
2018-03-02T09:15:19.354Z,-4.93
2018-03-02T09:17:12.233Z,-4.83
2018-03-02T09:18:12.240Z,-4.86
2018-03-02T09:20:05.138Z,-4.83
2018-03-02T09:21:05.129Z,-4.83
2018-03-02T09:22:58.007Z,-4.72
2018-03-02T09:23:58.015Z,-4.63
2018-03-02T09:25:50.915Z,-4.39
2018-03-02T09:26:50.902Z,-4.38
2018-03-02T09:28:43.807Z,-4.50
2018-03-02T09:29:43.794Z,-4.56
2018-03-02T09:31:36.677Z,-4.49
2018-03-02T09:32:36.684Z,-4.38
2018-03-02T09:34:29.583Z,-4.50
2018-03-02T09:35:29.574Z,-4.54
2018-03-02T09:37:22.505Z,-4.46
2018-03-02T09:38:22.457Z,-4.33
2018-03-02T09:40:15.356Z,-4.22
2018-03-02T09:41:15.346Z,-4.10
2018-03-02T09:43:08.225Z,-4.11
2018-03-02T09:44:08.235Z,-3.96
2018-03-02T09:46:01.140Z,-3.97
2018-03-02T09:47:01.133Z,-3.91
2018-03-02T09:48:54.006Z,-3.83
2018-03-02T09:49:54.015Z,-3.81
2018-03-02T09:51:46.918Z,-3.72
2018-03-02T09:52:46.907Z,-3.82
2018-03-02T09:54:39.813Z,-3.56
2018-03-02T09:55:39.796Z,-3.48
2018-03-02T09:57:32.681Z,-3.48
2018-03-02T09:58:32.687Z,-3.41
2018-03-02T10:00:25.597Z,-3.39
2018-03-02T10:01:25.583Z,-3.43
2018-03-02T10:03:18.461Z,-3.45
2018-03-02T10:04:18.472Z,-3.39
2018-03-02T10:06:11.375Z,-3.53
2018-03-02T10:07:11.363Z,-3.52
2018-03-02T10:09:04.249Z,-3.33
2018-03-02T10:10:04.257Z,-3.24
2018-03-02T10:11:57.166Z,-3.24
2018-03-02T10:12:57.154Z,-3.21
2018-03-02T10:14:50.073Z,-3.25
2018-03-02T10:15:50.046Z,-3.24
2018-03-02T10:17:42.929Z,-3.21
2018-03-02T10:18:42.938Z,-3.28
2018-03-02T10:20:35.874Z,-3.07
2018-03-02T10:21:35.830Z,-2.97
2018-03-02T10:23:28.713Z,-2.92
2018-03-02T10:24:28.720Z,-3.00
2018-03-02T10:26:21.628Z,-3.03
2018-03-02T10:27:21.611Z,-3.10
2018-03-02T10:29:14.500Z,-3.02
2018-03-02T10:30:14.514Z,-3.17
2018-03-02T10:32:07.412Z,-3.07
2018-03-02T10:33:07.400Z,-3.15
2018-03-02T10:35:00.310Z,-3.25
2018-03-02T10:36:00.292Z,-3.18
2018-03-02T10:37:53.181Z,-3.28
2018-03-02T10:38:53.187Z,-3.25
2018-03-02T10:40:46.089Z,-3.28
2018-03-02T10:41:46.078Z,-3.18
2018-03-02T10:43:38.964Z,-3.24
2018-03-02T10:44:38.972Z,-3.27
2018-03-02T10:46:31.878Z,-3.20
2018-03-02T10:47:31.863Z,-3.20
2018-03-02T10:49:24.748Z,-3.30
2018-03-02T10:50:24.759Z,-3.23
2018-03-02T10:52:17.660Z,-3.18
2018-03-02T10:53:17.648Z,-3.20
2018-03-02T10:55:10.532Z,-3.17
2018-03-02T10:56:10.539Z,-3.10
2018-03-02T10:58:03.499Z,-3.00
2018-03-02T10:59:03.433Z,-2.91
2018-03-02T11:00:56.349Z,-2.86
2018-03-02T11:01:56.326Z,-2.74
2018-03-02T11:03:49.214Z,-2.67
2018-03-02T11:04:49.220Z,-2.74
2018-03-02T11:06:42.122Z,-2.64
2018-03-02T11:07:42.111Z,-2.73
2018-03-02T11:09:34.995Z,-2.86
2018-03-02T11:10:35.003Z,-2.89
2018-03-02T11:12:27.908Z,-2.82
2018-03-02T11:13:27.898Z,-2.71
2018-03-02T11:15:20.785Z,-2.73
2018-03-02T11:16:20.790Z,-2.73
2018-03-02T11:18:13.696Z,-2.89
2018-03-02T11:19:13.686Z,-2.88
2018-03-02T11:21:06.568Z,-2.91
2018-03-02T11:22:06.594Z,-2.82
2018-03-02T11:23:59.479Z,-2.74
2018-03-02T11:24:59.470Z,-2.63
2018-03-02T11:26:52.371Z,-2.43
2018-03-02T11:27:52.359Z,-2.32
2018-03-02T11:29:45.241Z,-2.23
2018-03-02T11:30:45.254Z,-2.12
2018-03-02T11:32:38.153Z,-2.06
2018-03-02T11:33:38.150Z,-1.95
2018-03-02T11:35:31.057Z,-1.98
2018-03-02T11:36:31.038Z,-1.95
2018-03-02T11:38:23.942Z,-1.98
2018-03-02T11:39:23.929Z,-1.91
2018-03-02T11:41:16.816Z,-2.03
2018-03-02T11:42:16.824Z,-2.09
2018-03-02T11:44:09.727Z,-2.24
2018-03-02T11:45:09.716Z,-2.16
2018-03-02T11:47:02.652Z,-2.13
2018-03-02T11:48:02.610Z,-2.08
2018-03-02T11:49:55.520Z,-1.98
2018-03-02T11:50:55.507Z,-2.02
2018-03-02T11:52:48.430Z,-1.87
2018-03-02T11:53:48.403Z,-1.91
2018-03-02T11:55:41.291Z,-1.91
2018-03-02T11:56:41.302Z,-1.84
2018-03-02T11:58:34.207Z,-1.84
2018-03-02T11:59:34.197Z,-1.73
2018-03-02T12:01:27.082Z,-1.73
2018-03-02T12:02:27.095Z,-1.79
2018-03-02T12:04:20.001Z,-1.85
2018-03-02T12:05:19.989Z,-1.79
2018-03-02T12:07:12.877Z,-1.91
2018-03-02T12:08:12.889Z,-1.90
2018-03-02T12:10:05.788Z,-2.12
2018-03-02T12:11:05.773Z,-2.02
2018-03-02T12:12:58.678Z,-1.88
2018-03-02T12:13:58.669Z,-1.84
2018-03-02T12:15:51.548Z,-1.82
2018-03-02T12:16:51.559Z,-1.92
2018-03-02T12:18:44.460Z,-1.88
2018-03-02T12:19:44.446Z,-1.91
2018-03-02T12:21:37.381Z,-1.84
2018-03-02T12:22:37.374Z,-1.94
2018-03-02T12:24:30.243Z,-1.88
2018-03-02T12:25:30.233Z,-1.85
2018-03-02T12:27:23.118Z,-1.69
2018-03-02T12:28:23.128Z,-1.74
2018-03-02T12:30:16.031Z,-1.85
2018-03-02T12:31:16.019Z,-1.88
2018-03-02T12:33:08.899Z,-2.00
2018-03-02T12:34:08.910Z,-1.94
2018-03-02T12:36:01.813Z,-2.00
2018-03-02T12:37:01.801Z,-1.92
2018-03-02T12:38:54.706Z,-1.87
2018-03-02T12:39:54.695Z,-1.84
2018-03-02T12:41:47.577Z,-1.84
2018-03-02T12:42:47.588Z,-1.88
2018-03-02T12:44:40.492Z,-1.90
2018-03-02T12:45:40.481Z,-1.88
2018-03-02T12:47:33.363Z,-1.95
2018-03-02T12:48:33.373Z,-1.91
2018-03-02T12:50:26.276Z,-1.84
2018-03-02T12:51:26.264Z,-1.74
2018-03-02T12:53:19.148Z,-1.90
2018-03-02T12:54:19.184Z,-1.95
2018-03-02T12:56:12.061Z,-1.82
2018-03-02T12:57:12.049Z,-1.91
2018-03-02T12:59:04.960Z,-1.82
2018-03-02T13:00:04.947Z,-1.79
2018-03-02T13:01:57.825Z,-1.72
2018-03-02T13:02:57.837Z,-1.73
2018-03-02T13:04:50.749Z,-1.66
2018-03-02T13:05:50.750Z,-1.70
2018-03-02T13:07:43.618Z,-1.72
2018-03-02T13:08:43.629Z,-1.73
2018-03-02T13:10:36.533Z,-1.62
2018-03-02T13:11:36.522Z,-1.59
2018-03-02T13:13:29.403Z,-1.51
2018-03-02T13:14:29.414Z,-1.45
2018-03-02T13:16:22.316Z,-1.55
2018-03-02T13:17:22.307Z,-1.51
2018-03-02T13:19:15.368Z,-1.64
2018-03-02T13:20:15.380Z,-1.62
2018-03-02T13:22:08.285Z,-1.62
2018-03-02T13:23:08.272Z,-1.70
2018-03-02T13:25:01.173Z,-1.73
2018-03-02T13:26:01.163Z,-1.66
2018-03-02T13:27:54.047Z,-1.62
2018-03-02T13:28:54.061Z,-1.43
2018-03-02T13:30:46.967Z,-1.35
2018-03-02T13:31:46.949Z,-1.38
2018-03-02T13:33:39.832Z,-1.38
2018-03-02T13:34:39.842Z,-1.31
2018-03-02T13:36:32.756Z,-1.37
2018-03-02T13:37:32.737Z,-1.34
2018-03-02T13:39:25.622Z,-1.25
2018-03-02T13:40:25.632Z,-1.19
2018-03-02T13:42:18.538Z,-1.02
2018-03-02T13:43:18.528Z,-1.07
2018-03-02T13:45:11.431Z,-1.33
2018-03-02T13:46:11.427Z,-1.25
2018-03-02T13:48:04.329Z,-1.13
2018-03-02T13:49:04.318Z,-1.13
2018-03-02T13:50:57.222Z,-1.15
2018-03-02T13:51:57.214Z,-1.12
2018-03-02T13:53:50.096Z,-1.12
2018-03-02T13:54:50.107Z,-1.04
2018-03-02T13:56:43.018Z,-1.10
2018-03-02T13:57:43.008Z,-1.15
2018-03-02T13:59:35.896Z,-1.17
2018-03-02T14:00:35.904Z,-1.23
2018-03-02T14:02:28.816Z,-1.25
2018-03-02T14:03:28.803Z,-1.23
2018-03-02T14:05:21.687Z,-1.20
2018-03-02T14:06:21.697Z,-1.17
2018-03-02T14:08:14.605Z,-1.10
2018-03-02T14:09:14.591Z,-1.19
2018-03-02T14:11:07.478Z,-0.99
2018-03-02T14:12:07.488Z,-0.99
2018-03-02T14:14:00.393Z,-0.97
2018-03-02T14:15:00.381Z,-0.79
2018-03-02T14:16:53.287Z,-0.82
2018-03-02T14:17:53.276Z,-0.85
2018-03-02T14:19:46.163Z,-0.73
2018-03-02T14:20:46.282Z,-0.79
2018-03-02T14:22:39.156Z,-0.85
2018-03-02T14:23:39.077Z,-0.94
2018-03-02T14:25:31.962Z,-1.01
2018-03-02T14:26:31.972Z,-0.75
2018-03-02T14:28:24.881Z,-0.86
2018-03-02T14:29:24.873Z,-0.98
2018-03-02T14:31:17.754Z,-1.04
2018-03-02T14:32:17.762Z,-1.05
2018-03-02T14:34:10.668Z,-0.98
2018-03-02T14:35:10.678Z,-1.07
2018-03-02T14:37:03.541Z,-1.02
2018-03-02T14:38:03.552Z,-0.98
2018-03-02T14:39:56.455Z,-0.91
2018-03-02T14:40:56.447Z,-0.89
2018-03-02T14:42:49.353Z,-0.92
2018-03-02T14:43:49.345Z,-0.91
2018-03-02T14:45:42.233Z,-1.01
2018-03-02T14:46:42.244Z,-1.01
2018-03-02T14:48:35.155Z,-1.09
2018-03-02T14:49:35.142Z,-1.04
2018-03-02T14:51:28.105Z,-1.13
2018-03-02T14:52:28.038Z,-1.12
2018-03-02T14:54:20.943Z,-1.09
2018-03-02T14:55:20.933Z,-0.99
2018-03-02T14:57:13.831Z,-0.91
2018-03-02T14:58:13.834Z,-0.94
2018-03-02T15:00:06.739Z,-0.97
2018-03-02T15:01:06.739Z,-0.94
2018-03-02T15:02:59.619Z,-0.91
2018-03-02T15:03:59.629Z,-0.82
2018-03-02T15:05:52.534Z,-0.79
2018-03-02T15:06:52.533Z,-0.79
2018-03-02T15:08:45.435Z,-0.94
2018-03-02T15:09:45.429Z,-0.76
2018-03-02T15:11:38.314Z,-0.86
2018-03-02T15:12:38.372Z,-0.94
2018-03-02T15:14:31.228Z,-0.92
2018-03-02T15:15:31.217Z,-0.91
2018-03-02T15:17:24.107Z,-1.04
2018-03-02T15:18:24.115Z,-0.94
2018-03-02T15:20:17.018Z,-1.12
2018-03-02T15:21:17.008Z,-0.99
2018-03-02T15:23:09.898Z,-0.91
2018-03-02T15:24:09.910Z,-0.95
2018-03-02T15:26:02.809Z,-0.92
2018-03-02T15:27:02.802Z,-0.94
2018-03-02T15:28:55.725Z,-1.10
2018-03-02T15:29:55.700Z,-1.07
2018-03-02T15:31:48.584Z,-1.04
2018-03-02T15:32:48.593Z,-1.07
2018-03-02T15:34:41.503Z,-1.13
2018-03-02T15:35:41.495Z,-1.15
2018-03-02T15:37:34.383Z,-1.16
2018-03-02T15:38:34.396Z,-1.16
2018-03-02T15:40:27.301Z,-1.05
2018-03-02T15:41:27.294Z,-1.05
2018-03-02T15:43:20.182Z,-1.09
2018-03-02T15:44:20.190Z,-1.13
2018-03-02T15:46:13.094Z,-1.12
2018-03-02T15:47:13.086Z,-1.16
2018-03-02T15:49:05.974Z,-1.12
2018-03-02T15:50:05.981Z,-1.25
2018-03-02T15:51:58.886Z,-1.20
2018-03-02T15:52:58.877Z,-1.23
2018-03-02T15:54:51.800Z,-1.20
2018-03-02T15:55:51.785Z,-1.17
2018-03-02T15:57:44.663Z,-1.25
2018-03-02T15:58:44.671Z,-1.19
2018-03-02T16:00:37.581Z,-1.23
2018-03-02T16:01:37.573Z,-1.22
2018-03-02T16:03:30.466Z,-1.27
2018-03-02T16:04:30.474Z,-1.22
2018-03-02T16:06:23.379Z,-1.25
2018-03-02T16:07:23.373Z,-1.25
2018-03-02T16:09:16.272Z,-1.38
2018-03-02T16:10:16.266Z,-1.37
2018-03-02T16:12:09.173Z,-1.38
2018-03-02T16:13:09.161Z,-1.43
2018-03-02T16:15:02.078Z,-1.34
2018-03-02T16:16:02.061Z,-1.38
2018-03-02T16:17:54.949Z,-1.23
2018-03-02T16:18:54.959Z,-1.25
2018-03-02T16:20:47.864Z,-1.28
2018-03-02T16:21:47.855Z,-1.25
2018-03-02T16:23:40.742Z,-1.27
2018-03-02T16:24:40.752Z,-1.22
2018-03-02T16:26:33.661Z,-1.31
2018-03-02T16:27:33.645Z,-1.35
2018-03-02T16:29:26.533Z,-1.54
2018-03-02T16:30:26.542Z,-1.48
2018-03-02T16:32:19.448Z,-1.51
2018-03-02T16:33:19.437Z,-1.51
2018-03-02T16:35:12.324Z,-1.49
2018-03-02T16:36:12.334Z,-1.56
2018-03-02T16:38:05.241Z,-1.58
2018-03-02T16:39:05.229Z,-1.58
2018-03-02T16:40:58.133Z,-1.58
2018-03-02T16:41:58.122Z,-1.66
2018-03-02T16:43:51.006Z,-1.56
2018-03-02T16:44:51.019Z,-1.58
2018-03-02T16:46:43.924Z,-1.62
2018-03-02T16:47:43.915Z,-1.73
2018-03-02T16:49:36.802Z,-1.74
2018-03-02T16:50:36.810Z,-1.70
2018-03-02T16:52:29.718Z,-1.69
2018-03-02T16:53:29.707Z,-1.64
2018-03-02T16:55:22.593Z,-1.72
2018-03-02T16:56:22.620Z,-1.70
2018-03-02T16:58:15.509Z,-1.73
2018-03-02T16:59:15.498Z,-1.66
2018-03-02T17:01:08.415Z,-1.76
2018-03-02T17:02:08.398Z,-1.74
2018-03-02T17:04:01.280Z,-1.77
2018-03-02T17:05:01.292Z,-1.70
2018-03-02T17:06:54.204Z,-1.76
2018-03-02T17:07:54.192Z,-1.79
2018-03-02T17:09:47.080Z,-1.73
2018-03-02T17:10:47.086Z,-1.76
2018-03-02T17:12:39.993Z,-1.79
2018-03-02T17:13:39.979Z,-1.77
2018-03-02T17:15:32.865Z,-1.74
2018-03-02T17:16:32.879Z,-1.84
2018-03-02T17:18:25.845Z,-1.84
2018-03-02T17:19:25.833Z,-1.76
2018-03-02T17:21:18.721Z,-1.82
2018-03-02T17:22:18.732Z,-1.80
2018-03-02T17:24:11.636Z,-1.84
2018-03-02T17:25:11.627Z,-1.79
2018-03-02T17:27:04.530Z,-1.87
2018-03-02T17:28:04.523Z,-1.84
2018-03-02T17:29:57.410Z,-1.84
2018-03-02T17:30:57.414Z,-1.80
2018-03-02T17:32:50.323Z,-1.82
2018-03-02T17:33:50.312Z,-1.82
2018-03-02T17:35:43.199Z,-1.82
2018-03-02T17:36:43.208Z,-1.82
2018-03-02T17:38:36.111Z,-1.90
2018-03-02T17:39:36.099Z,-1.91
2018-03-02T17:41:28.982Z,-1.98
2018-03-02T17:42:28.992Z,-1.98
2018-03-02T17:44:21.897Z,-2.09
2018-03-02T17:45:21.884Z,-2.12
2018-03-02T17:47:14.803Z,-2.05
2018-03-02T17:48:14.776Z,-2.03
2018-03-02T17:50:07.660Z,-2.09
2018-03-02T17:51:07.668Z,-2.15
2018-03-02T17:53:00.573Z,-2.15
2018-03-02T17:54:00.562Z,-2.13
2018-03-02T17:55:53.441Z,-2.15
2018-03-02T17:56:53.451Z,-2.15
2018-03-02T17:58:46.350Z,-2.24
2018-03-02T17:59:46.340Z,-2.24
2018-03-02T18:01:39.220Z,-2.26
2018-03-02T18:02:39.229Z,-2.24
2018-03-02T18:04:32.131Z,-2.27
2018-03-02T18:05:32.117Z,-2.24
2018-03-02T18:07:25.046Z,-2.24
2018-03-02T18:08:25.007Z,-2.23
2018-03-02T18:10:17.890Z,-2.30
2018-03-02T18:11:17.907Z,-2.23
2018-03-02T18:13:10.808Z,-2.24
2018-03-02T18:14:10.797Z,-2.29
2018-03-02T18:16:03.680Z,-2.35
2018-03-02T18:17:03.686Z,-2.34
2018-03-02T18:18:56.588Z,-2.32
2018-03-02T18:19:56.582Z,-2.40
2018-03-02T18:21:49.458Z,-2.40
2018-03-02T18:22:49.465Z,-2.42
2018-03-02T18:24:42.366Z,-2.37
2018-03-02T18:25:42.357Z,-2.46
2018-03-02T18:27:35.237Z,-2.30
2018-03-02T18:28:35.245Z,-2.34
2018-03-02T18:30:28.146Z,-2.30
2018-03-02T18:31:28.139Z,-2.35
2018-03-02T18:33:21.054Z,-2.35